Time;durP1;ratioP1;P1;durP2;ratioP2;P2;SDS_P1;SDS_P2;PMS_P1;PMS_P2;Temp;Humidity;BMP_temperature;BMP_pressure;BME280_temperature;BME280_humidity;BME280_pressure;Samples;Min_cycle;Max_cycle;Signal;HPM_P1;HPM_P2
2022/08/11 00:02:00;;;;;;;8.60;2.88;;;;;;;22.95;45.15;102118.44;5075093;28;20040;-51
2022/08/11 00:04:35;;;;;;;7.32;2.97;;;;;;;22.99;44.85;102117.81;5077090;28;20048;-52
2022/08/11 00:07:04;;;;;;;4.53;2.70;;;;;;;22.96;44.91;102116.47;5077570;28;20042;-51
2022/08/11 00:09:35;;;;;;;7.15;2.95;;;;;;;22.85;45.13;102115.94;5093454;28;20047;-48
2022/08/11 00:12:14;;;;;;;4.90;2.97;;;;;;;22.74;45.47;102109.03;5074740;28;20032;-52
2022/08/11 00:14:43;;;;;;;6.10;2.75;;;;;;;22.68;45.58;102111.13;5094357;28;20406;-50
2022/08/11 00:17:13;;;;;;;4.65;2.50;;;;;;;22.64;45.60;102112.09;5094938;28;20046;-50
2022/08/11 00:20:04;;;;;;;7.35;2.70;;;;;;;22.62;45.68;102114.34;5065197;28;20044;-51
2022/08/11 00:23:07;;;;;;;3.92;2.55;;;;;;;22.52;46.07;102110.72;5078976;28;20149;-49
2022/08/11 00:25:45;;;;;;;6.80;2.80;;;;;;;22.54;46.01;102113.19;5077270;28;20048;-52
2022/08/11 00:28:28;;;;;;;6.38;2.53;;;;;;;22.48;46.09;102104.13;5094637;28;20123;-54
2022/08/11 00:31:02;;;;;;;4.53;2.60;;;;;;;22.44;46.28;102107.88;5095150;28;20052;-54
2022/08/11 00:33:38;;;;;;;4.18;2.60;;;;;;;22.47;46.16;102107.25;5069778;28;20036;-55
2022/08/11 00:36:15;;;;;;;7.75;2.72;;;;;;;22.46;46.31;102106.41;5081799;28;20047;-54
2022/08/11 00:39:05;;;;;;;6.28;2.50;;;;;;;22.40;46.52;102107.69;5080033;28;20040;-50
2022/08/11 00:41:51;;;;;;;6.43;2.50;;;;;;;22.38;46.59;102109.97;5094782;28;20032;-51
2022/08/11 00:44:33;;;;;;;6.03;2.88;;;;;;;22.34;46.75;102103.38;5092686;28;20422;-51
2022/08/11 00:47:27;;;;;;;5.70;2.50;;;;;;;22.27;46.71;102105.78;5080240;28;20043;-52
2022/08/11 00:50:02;;;;;;;3.75;2.40;;;;;;;22.18;47.19;102107.69;5094361;28;20479;-52
2022/08/11 00:52:58;;;;;;;10.10;2.80;;;;;;;22.11;47.37;102108.94;5093709;28;20147;-52
2022/08/11 00:55:50;;;;;;;6.97;2.97;;;;;;;22.10;47.50;102098.97;5059679;28;20047;-51
2022/08/11 00:58:41;;;;;;;5.30;2.78;;;;;;;22.10;47.45;102098.13;5089205;28;20043;-53
2022/08/11 01:01:16;;;;;;;11.75;3.10;;;;;;;22.09;47.47;102096.50;5094164;28;20032;-49
2022/08/11 01:04:02;;;;;;;6.90;2.75;;;;;;;22.08;47.62;102101.25;5093210;28;20551;-52
2022/08/11 01:06:51;;;;;;;6.40;2.88;;;;;;;22.10;47.55;102098.97;5092110;28;20047;-53
2022/08/11 01:09:37;;;;;;;6.80;2.80;;;;;;;22.08;47.84;102108.72;5080057;28;20048;-53
2022/08/11 01:12:35;;;;;;;5.90;2.97;;;;;;;22.02;48.08;102107.22;5094063;28;20040;-54
2022/08/11 01:15:40;;;;;;;5.57;2.80;;;;;;;21.96;48.14;102101.00;5020823;28;20428;-49
2022/08/11 01:18:43;;;;;;;11.43;3.20;;;;;;;21.84;48.48;102109.88;5085612;28;20042;-51
2022/08/11 01:21:17;;;;;;;5.13;2.80;;;;;;;21.78;48.76;102108.34;5093150;28;20052;-51
2022/08/11 01:24:01;;;;;;;5.35;3.05;;;;;;;21.73;48.84;102107.63;5093039;28;20048;-53
2022/08/11 01:26:47;;;;;;;4.40;2.80;;;;;;;21.62;49.08;102107.03;5083222;28;20048;-53
2022/08/11 01:29:51;;;;;;;5.93;2.80;;;;;;;21.59;48.97;102119.56;5093419;28;20051;-50
2022/08/11 01:32:22;;;;;;;6.32;2.80;;;;;;;21.58;49.06;102111.59;5081718;28;20522;-48
2022/08/11 01:35:15;;;;;;;7.22;2.90;;;;;;;21.53;49.21;102112.50;5091665;28;20044;-51
2022/08/11 01:38:25;;;;;;;6.57;3.00;;;;;;;21.49;49.24;102111.50;5093036;28;20047;-51
2022/08/11 01:41:04;;;;;;;8.43;3.03;;;;;;;21.48;49.39;102107.91;5092715;28;20062;-48
2022/08/11 01:47:49;;;;;;;6.53;2.70;;;;;;;21.58;49.04;102111.59;5078329;28;20054;-51
2022/08/11 01:50:27;;;;;;;7.47;2.95;;;;;;;21.49;49.31;102111.50;5071827;28;20048;-52
2022/08/11 01:52:57;;;;;;;7.05;3.08;;;;;;;21.45;49.39;102102.13;5075418;28;20036;-53
2022/08/11 01:55:34;;;;;;;3.90;2.65;;;;;;;21.43;49.44;102104.41;5092044;28;20417;-53
2022/08/11 01:58:43;;;;;;;7.38;3.33;;;;;;;21.45;49.52;102108.53;5093222;28;20050;-51
2022/08/11 02:01:43;;;;;;;7.97;2.80;;;;;;;21.50;49.43;102102.03;5088483;28;20048;-52
2022/08/11 02:04:51;;;;;;;4.90;2.67;;;;;;;21.50;49.37;102107.56;5075057;28;20474;-50
2022/08/11 02:07:48;;;;;;;4.45;2.60;;;;;;;21.42;49.49;102100.00;5083335;28;20048;-50
2022/08/11 02:13:22;;;;;;;7.80;3.50;;;;;;;21.31;49.98;102104.94;5092130;28;20058;-46
2022/08/11 02:16:12;;;;;;;8.30;3.10;;;;;;;21.25;50.26;102101.41;5076687;28;20054;-52
2022/08/11 02:25:06;;;;;;;7.75;2.90;;;;;;;21.14;50.56;102110.25;5074101;28;20062;-50
2022/08/11 02:27:49;;;;;;;6.18;2.90;;;;;;;21.10;50.81;102106.47;5091190;28;20104;-51
2022/08/11 02:30:23;;;;;;;7.40;3.00;;;;;;;21.11;50.96;102100.59;5075286;28;20475;-51
2022/08/11 02:33:22;;;;;;;5.32;2.85;;;;;;;21.16;50.87;102103.25;5074892;28;20114;-49
2022/08/11 02:36:07;;;;;;;5.35;2.80;;;;;;;21.17;50.72;102107.69;5076975;28;20518;-50
2022/08/11 02:39:13;;;;;;;7.05;3.05;;;;;;;21.25;50.60;102097.84;5074341;28;20048;-48
2022/08/11 02:45:53;;;;;;;3.65;2.80;;;;;;;21.25;50.52;102101.41;5020789;28;20151;-51
2022/08/11 02:52:08;;;;;;;4.60;2.80;;;;;;;21.10;51.09;102095.38;5092713;28;20040;-49
2022/08/11 02:55:03;;;;;;;6.00;3.22;;;;;;;21.07;51.38;102094.06;5074143;28;20036;-55
2022/08/11 02:57:39;;;;;;;7.22;3.15;;;;;;;21.08;51.29;102101.22;5090316;28;20036;-54
2022/08/11 03:00:12;;;;;;;7.57;3.10;;;;;;;21.07;51.35;102099.59;5074881;28;20040;-53
2022/08/11 03:03:15;;;;;;;7.43;3.00;;;;;;;21.07;51.17;102096.81;5074227;28;20090;-54
2022/08/11 03:06:08;;;;;;;6.03;3.10;;;;;;;21.05;51.22;102101.84;5075168;28;20048;-51
2022/08/11 03:09:07;;;;;;;6.03;3.22;;;;;;;21.04;51.54;102101.00;5073070;28;20043;-51
2022/08/11 03:18:29;;;;;;;5.30;3.13;;;;;;;20.88;51.98;102096.06;5076223;28;20054;-50
2022/08/11 03:21:20;;;;;;;8.52;3.40;;;;;;;20.84;52.15;102099.47;5072680;28;20088;-54
2022/08/11 03:24:00;;;;;;;9.13;3.15;;;;;;;20.89;52.12;102103.28;5074586;28;20502;-52
2022/08/11 03:26:52;;;;;;;6.70;3.38;;;;;;;20.86;52.11;102099.19;5074210;28;20052;-50
2022/08/11 03:30:18;;;;;;;5.45;3.00;;;;;;;20.84;52.25;102102.25;5082855;28;20768;-51
2022/08/11 03:37:01;;;;;;;7.10;3.10;;;;;;;20.90;52.02;102094.66;5092244;28;20414;-51
2022/08/11 03:40:02;;;;;;;7.45;3.38;;;;;;;20.84;52.45;102107.78;5083825;28;20093;-51
2022/08/11 03:42:45;;;;;;;4.07;3.03;;;;;;;20.84;52.32;102095.88;5078398;28;20494;-48
2022/08/11 03:45:48;;;;;;;7.57;3.40;;;;;;;20.84;52.31;102093.94;5078261;28;20048;-50
2022/08/11 03:48:40;;;;;;;7.10;3.42;;;;;;;20.86;52.21;102099.19;5088835;28;20040;-47
2022/08/11 03:51:18;;;;;;;6.65;2.92;;;;;;;20.82;52.64;102095.38;5073563;28;20052;-51
2022/08/11 03:54:10;;;;;;;7.50;3.33;;;;;;;20.77;52.41;102096.28;5077628;28;20044;-52
2022/08/11 03:57:03;;;;;;;6.90;3.20;;;;;;;20.63;53.21;102095.44;5095390;28;20044;-53
2022/08/11 04:00:02;;;;;;;5.75;3.20;;;;;;;20.61;53.08;102092.16;5095133;28;20147;-53
2022/08/11 04:02:41;;;;;;;6.82;3.50;;;;;;;20.54;53.31;102091.69;5093853;28;20074;-52
2022/08/11 04:05:31;;;;;;;7.38;3.30;;;;;;;20.48;53.67;102087.41;5075975;28;20036;-52
2022/08/11 04:08:35;;;;;;;6.82;3.00;;;;;;;20.50;53.88;102090.69;5076499;28;20112;-51
2022/08/11 04:11:35;;;;;;;9.50;3.05;;;;;;;20.55;53.74;102091.44;5092394;28;20051;-52
2022/08/11 04:17:41;;;;;;;7.03;3.45;;;;;;;20.40;54.25;102086.97;5093615;28;20052;-52
2022/08/11 04:20:44;;;;;;;6.28;3.22;;;;;;;20.25;54.70;102087.22;5093394;28;20453;-49
2022/08/11 04:23:40;;;;;;;7.25;3.25;;;;;;;20.15;55.21;102087.38;5076654;28;20040;-51
2022/08/11 04:27:00;;;;;;;6.38;3.55;;;;;;;20.14;55.16;102092.13;5068217;28;20051;-51
2022/08/11 04:29:57;;;;;;;8.70;3.35;;;;;;;20.15;55.38;102096.50;5076407;28;20056;-53
2022/08/11 04:32:55;;;;;;;8.98;3.38;;;;;;;20.16;55.49;102097.34;5091101;28;20112;-49
2022/08/11 04:35:42;;;;;;;7.78;3.60;;;;;;;20.05;55.70;102091.16;5094937;28;20044;-50
2022/08/11 04:38:38;;;;;;;6.32;3.42;;;;;;;20.03;56.07;102081.50;5094670;28;20033;-49
2022/08/11 04:44:37;;;;;;;9.73;3.70;;;;;;;20.03;56.11;102095.34;5093979;28;20071;-52
2022/08/11 05:01:39;;;;;;;9.55;3.72;;;;;;;19.92;56.58;102091.94;5093501;28;20043;-52
2022/08/11 05:07:24;;;;;;;6.18;3.40;;;;;;;20.04;56.95;102095.06;5093163;28;20044;-54
2022/08/11 05:10:14;;;;;;;5.82;3.30;;;;;;;20.10;56.90;102087.47;5093386;28;20551;-57
2022/08/11 05:12:45;;;;;;;5.13;3.28;;;;;;;20.16;56.72;102087.09;5082892;28;20126;-53
2022/08/11 05:36:17;;;;;;;4.80;3.60;;;;;;;20.33;56.80;102094.03;5052079;28;20048;-52
2022/08/11 05:56:59;;;;;;;9.77;4.13;;;;;;;20.46;56.85;102101.53;5051514;28;20045;-54
2022/08/11 05:59:27;;;;;;;8.50;4.38;;;;;;;20.49;56.82;102106.44;5051329;28;20112;-55
2022/08/11 06:02:04;;;;;;;7.85;4.25;;;;;;;20.54;56.35;102102.78;5050980;28;20041;-52
2022/08/11 06:04:34;;;;;;;8.85;4.25;;;;;;;20.55;56.44;102108.03;4384853;28;10001846;-55
2022/08/11 06:07:07;;;;;;;11.73;4.40;;;;;;;20.59;56.39;102111.88;5049130;28;20298;-55
2022/08/11 06:09:46;;;;;;;12.70;5.10;;;;;;;20.63;56.45;102106.53;5049550;28;20556;-54
2022/08/11 06:12:26;;;;;;;12.77;5.72;;;;;;;20.63;56.35;102112.06;5055335;28;20499;-55
2022/08/11 06:14:55;;;;;;;10.52;5.43;;;;;;;20.62;56.63;102110.44;5045803;28;20033;-54
2022/08/11 06:17:27;;;;;;;9.13;4.97;;;;;;;20.60;56.72;102107.94;5048396;28;20045;-55
2022/08/11 06:20:11;;;;;;;11.48;5.25;;;;;;;20.63;56.54;102106.53;5048711;28;20079;-55
2022/08/11 06:22:41;;;;;;;10.75;5.80;;;;;;;20.69;56.18;102119.16;5049558;28;20090;-54
2022/08/11 06:25:11;;;;;;;9.27;5.05;;;;;;;20.68;56.38;102108.38;5047565;28;20067;-56
2022/08/11 06:27:41;;;;;;;8.50;4.68;;;;;;;20.68;56.53;102111.16;5047258;28;20041;-57
2022/08/11 06:30:12;;;;;;;7.45;4.60;;;;;;;20.70;56.36;102115.25;5067540;28;20060;-58
2022/08/11 06:32:45;;;;;;;13.23;7.00;;;;;;;20.73;56.41;102117.41;5091011;28;20066;-57
2022/08/11 06:35:33;;;;;;;13.15;5.82;;;;;;;20.75;56.10;102115.16;5072431;28;20040;-58
2022/08/11 06:38:24;;;;;;;11.57;5.10;;;;;;;20.78;56.10;102106.25;5088199;28;20043;-57
2022/08/11 06:44:05;;;;;;;9.98;5.07;;;;;;;20.84;55.78;102113.31;5062648;28;20059;-57
2022/08/11 06:46:38;;;;;;;9.13;4.80;;;;;;;20.90;55.31;102108.53;5087588;28;20049;-57
2022/08/11 06:51:10;;;;;;;11.38;5.32;;;;;;;20.96;55.20;102114.78;5089573;28;20048;-54
2022/08/11 06:51:57;;;;;;;33.70;11.23;;;;;;;21.03;54.99;102106.88;5074348;28;20050;-54
2022/08/11 06:54:34;;;;;;;11.13;5.90;;;;;;;21.06;54.52;102109.03;5071767;28;20044;-56
2022/08/11 07:03:08;;;;;;;12.02;5.85;;;;;;;21.18;54.07;102112.09;5091269;28;19926;-50
2022/08/11 07:05:46;;;;;;;11.15;5.38;;;;;;;21.21;54.08;102119.81;5078532;28;20040;-57
2022/08/11 07:30:30;;;;;;;6.55;3.60;;;;;;;21.64;51.43;102115.88;5090856;28;20056;-51
2022/08/11 07:33:00;;;;;;;7.32;4.00;;;;;;;21.66;51.60;102117.19;5077314;28;20506;-53
2022/08/11 07:35:37;;;;;;;12.30;4.05;;;;;;;21.69;51.51;102101.88;5095841;28;20094;-56
2022/08/11 07:38:08;;;;;;;9.43;4.00;;;;;;;21.72;51.38;102108.75;5077650;28;20081;-52
2022/08/11 07:40:36;;;;;;;13.20;4.10;;;;;;;21.75;51.37;102108.16;5076435;28;20036;-51
2022/08/11 07:43:05;;;;;;;8.13;3.88;;;;;;;21.83;50.99;102104.63;5077958;28;20051;-52
2022/08/11 07:53:53;;;;;;;10.52;3.60;;;;;;;22.03;51.08;102104.16;5076482;28;20451;-51
2022/08/11 07:56:35;;;;;;;11.73;4.43;;;;;;;22.08;50.50;102112.34;5095440;28;20042;-53
2022/08/11 08:19:55;;;;;;;9.25;4.05;;;;;;;22.49;48.25;102111.34;5078714;28;20047;-49
2022/08/11 08:22:23;;;;;;;11.20;4.78;;;;;;;22.55;47.68;102110.06;5093236;28;20050;-50
2022/08/11 08:25:06;;;;;;;11.65;4.07;;;;;;;22.60;46.27;102111.88;5078938;28;20048;-51
2022/08/11 08:27:37;;;;;;;10.30;3.22;;;;;;;22.65;46.04;102110.94;5076933;28;20487;-51
2022/08/11 08:32:56;;;;;;;13.13;3.60;;;;;;;22.69;44.95;102109.97;5093599;28;20385;-50
2022/08/11 08:35:24;;;;;;;7.45;3.60;;;;;;;22.80;43.96;102113.31;5094924;28;20044;-50
2022/08/11 08:37:59;;;;;;;10.05;3.50;;;;;;;22.90;43.73;102107.47;5059295;28;20059;-51
2022/08/11 08:40:28;;;;;;;8.30;3.60;;;;;;;22.94;43.18;102105.66;5094051;28;20102;-48
2022/08/11 08:43:16;;;;;;;6.97;3.30;;;;;;;23.05;42.85;102106.25;5093004;28;20043;-55
2022/08/11 08:45:44;;;;;;;7.10;3.60;;;;;;;23.05;43.23;102111.00;5076943;28;20036;-51
2022/08/11 08:48:16;;;;;;;5.60;3.30;;;;;;;23.01;44.14;102112.75;5094133;28;20054;-51
2022/08/11 08:53:51;;;;;;;8.38;3.45;;;;;;;22.99;43.90;102112.25;5093295;28;20036;-51
2022/08/11 08:56:27;;;;;;;13.18;3.70;;;;;;;22.98;44.36;102105.88;5077188;28;20047;-52
2022/08/11 08:59:15;;;;;;;8.82;3.53;;;;;;;22.99;44.14;102107.50;5078334;28;20040;-52
2022/08/11 09:01:47;;;;;;;6.90;3.28;;;;;;;23.06;44.40;102107.06;5093567;28;20486;-51
2022/08/11 09:04:30;;;;;;;8.52;3.63;;;;;;;23.20;44.09;102110.53;5075907;28;20051;-51
2022/08/11 09:07:08;;;;;;;7.65;3.42;;;;;;;23.29;43.38;102105.81;5059670;28;20032;-54
2022/08/11 09:09:47;;;;;;;11.10;3.63;;;;;;;23.38;42.80;102106.66;5076592;28;20040;-50
2022/08/11 09:12:17;;;;;;;9.43;3.38;;;;;;;23.43;42.85;102105.69;5075404;28;20088;-49
2022/08/11 09:15:08;;;;;;;9.32;3.05;;;;;;;23.48;42.68;102099.16;5076798;28;20534;-51
2022/08/11 09:17:47;;;;;;;7.10;3.22;;;;;;;23.55;41.63;102103.09;5066898;28;20039;-51
2022/08/11 09:20:37;;;;;;;8.52;3.08;;;;;;;23.65;42.31;102101.94;5088547;28;20101;-56
2022/08/11 09:29:03;;;;;;;6.88;3.20;;;;;;;23.71;41.98;102095.06;5093266;28;20055;-50
2022/08/11 09:31:34;;;;;;;7.75;3.35;;;;;;;23.79;41.75;102097.09;5074144;28;20059;-50
2022/08/11 09:34:10;;;;;;;7.90;3.45;;;;;;;23.87;42.01;102086.28;5093635;28;20562;-51
2022/08/11 09:45:21;;;;;;;5.65;3.05;;;;;;;24.22;41.43;102087.03;5078834;28;20120;-54
2022/08/11 09:47:49;;;;;;;9.32;3.38;;;;;;;24.29;41.06;102083.75;5091434;28;20055;-53
2022/08/11 09:50:18;;;;;;;10.20;3.42;;;;;;;24.42;40.51;102082.75;5092356;28;20044;-53
2022/08/11 09:52:50;;;;;;;6.60;3.20;;;;;;;24.58;40.09;102072.75;5084698;28;20047;-52
2022/08/11 09:55:58;;;;;;;10.95;3.42;;;;;;;24.60;40.08;102067.63;5092608;28;20048;-52
2022/08/11 09:58:27;;;;;;;6.60;2.90;;;;;;;24.60;40.06;102067.63;5090392;28;20047;-53
2022/08/11 10:01:25;;;;;;;6.82;3.00;;;;;;;24.76;39.16;102067.91;5092425;28;20058;-57
2022/08/11 10:04:30;;;;;;;7.78;3.20;;;;;;;24.70;39.41;102069.22;5071092;28;20048;-57
2022/08/11 10:07:20;;;;;;;6.22;3.25;;;;;;;24.74;39.10;102072.19;5081841;28;20071;-53
2022/08/11 10:09:52;;;;;;;5.00;2.70;;;;;;;24.77;38.57;102063.13;5092389;28;20043;-54
2022/08/11 10:12:32;;;;;;;9.88;3.65;;;;;;;24.77;39.12;102069.53;5082749;28;20089;-55
2022/08/11 10:21:02;;;;;;;8.23;3.17;;;;;;;24.97;38.29;102056.81;5059841;28;20036;-54
2022/08/11 10:35:30;;;;;;;10.32;3.80;;;;;;;25.31;37.38;102048.59;5079700;28;20040;-53
2022/08/11 10:38:18;;;;;;;7.32;3.40;;;;;;;25.28;36.65;102044.53;5076756;28;20040;-50
2022/08/11 10:43:01;;;;;;;8.48;3.30;;;;;;;25.32;37.11;102051.03;5074274;28;20408;-49
2022/08/11 10:43:39;;;;;;;10.95;3.53;;;;;;;25.39;36.52;102048.53;5078172;28;20062;-48
2022/08/11 10:49:14;;;;;;;6.05;3.00;;;;;;;25.49;37.26;102042.53;5094200;28;20036;-53
2022/08/11 11:00:05;;;;;;;6.40;3.00;;;;;;;25.49;36.04;102034.16;5093906;28;20048;-51
2022/08/11 11:02:34;;;;;;;5.32;3.08;;;;;;;25.43;36.22;102031.94;5096058;28;20413;-54
2022/08/11 11:05:23;;;;;;;7.25;3.25;;;;;;;25.58;35.61;102036.06;5078016;28;20028;-53
2022/08/11 11:20:32;;;;;;;7.80;3.00;;;;;;;25.89;34.98;102024.50;5093981;28;20040;-53
2022/08/11 11:23:46;;;;;;;7.00;3.13;;;;;;;25.98;35.15;102016.00;5093717;28;20040;-53
2022/08/11 11:26:37;;;;;;;5.85;3.40;;;;;;;26.02;34.60;102011.38;5095931;28;20042;-55
2022/08/11 11:29:42;;;;;;;6.90;2.88;;;;;;;26.09;33.39;102012.44;5094251;28;20051;-54
2022/08/11 11:32:16;;;;;;;4.85;2.85;;;;;;;26.12;33.47;102011.78;5088095;28;20048;-53
2022/08/11 11:35:08;;;;;;;5.88;2.92;;;;;;;26.19;32.53;102007.56;5095269;28;20046;-54
2022/08/11 11:37:37;;;;;;;7.30;2.97;;;;;;;26.39;32.16;102005.88;5095508;28;20056;-56
2022/08/11 11:40:13;;;;;;;9.77;2.95;;;;;;;26.38;31.99;102007.84;5076720;28;20077;-49
2022/08/11 11:42:45;;;;;;;10.73;3.15;;;;;;;26.39;31.54;102008.69;5096094;28;20040;-54
2022/08/11 11:45:20;;;;;;;5.07;2.80;;;;;;;26.28;31.65;101997.13;5077161;28;20141;-55
2022/08/11 11:47:53;;;;;;;5.90;2.90;;;;;;;26.26;31.23;102003.03;5082527;28;20036;-52
2022/08/11 11:50:27;;;;;;;5.65;3.00;;;;;;;26.42;31.92;102000.41;5076568;28;20047;-52
2022/08/11 11:53:01;;;;;;;6.10;3.00;;;;;;;26.59;31.24;102002.19;5082768;28;20046;-53
2022/08/11 11:55:29;;;;;;;4.00;2.67;;;;;;;26.59;31.20;102002.19;5077183;28;20046;-53
2022/08/11 12:03:36;;;;;;;5.05;3.03;;;;;;;26.75;30.85;102000.31;5080605;28;20414;-52
2022/08/11 12:06:07;;;;;;;6.45;3.10;;;;;;;26.70;30.92;101994.97;5077447;28;20040;-54
2022/08/11 12:08:36;;;;;;;4.38;3.10;;;;;;;26.67;30.88;101987.25;5096233;28;20055;-51
2022/08/11 12:13:57;;;;;;;5.63;3.08;;;;;;;26.65;30.91;101984.03;5085202;28;20051;-55
2022/08/11 12:16:25;;;;;;;9.65;3.20;;;;;;;26.63;30.54;101985.53;5076792;28;20417;-54
2022/08/11 12:19:16;;;;;;;5.50;3.08;;;;;;;26.70;30.40;101977.38;5093610;28;20047;-54
2022/08/11 12:27:57;;;;;;;4.68;2.83;;;;;;;26.82;30.60;101965.34;5083161;28;20502;-52
2022/08/11 12:30:25;;;;;;;6.90;3.13;;;;;;;26.78;30.78;101965.25;5095625;28;20126;-54
2022/08/11 12:32:53;;;;;;;4.50;2.70;;;;;;;26.77;30.51;101964.44;5075917;28;20036;-49
2022/08/11 12:35:21;;;;;;;9.80;3.17;;;;;;;26.76;30.58;101961.97;5076878;28;20043;-56
2022/08/11 12:37:55;;;;;;;7.57;3.13;;;;;;;26.82;30.02;101952.19;5093059;28;20044;-56
2022/08/11 12:46:39;;;;;;;4.70;2.70;;;;;;;27.16;28.38;101952.81;5079334;28;20036;-55
2022/08/11 12:52:04;;;;;;;8.57;2.92;;;;;;;27.35;28.92;101932.63;5066852;28;20042;-51
2022/08/11 12:54:50;;;;;;;8.13;3.05;;;;;;;27.34;28.91;101930.97;5093190;28;20032;-57
2022/08/11 13:06:40;;;;;;;7.18;3.13;;;;;;;27.34;28.89;101920.59;5093946;28;20042;-54
2022/08/11 13:09:08;;;;;;;5.53;2.95;;;;;;;27.36;29.10;101921.03;5075508;28;20044;-57
2022/08/11 13:14:28;;;;;;;5.60;2.65;;;;;;;27.50;28.51;101917.84;5094225;28;20046;-50
2022/08/11 13:19:43;;;;;;;4.95;2.67;;;;;;;27.37;27.98;101907.84;5078271;28;20040;-52
2022/08/11 13:22:18;;;;;;;5.47;2.53;;;;;;;27.36;28.08;101900.66;5075012;28;20179;-56
2022/08/11 13:24:47;;;;;;;5.50;2.95;;;;;;;27.38;27.91;101898.31;5073761;28;20050;-58
2022/08/11 13:27:17;;;;;;;7.43;2.90;;;;;;;27.42;27.55;101899.22;5092937;28;20048;-55
2022/08/11 13:29:45;;;;;;;9.65;2.83;;;;;;;27.54;27.16;101893.56;5068538;28;20048;-56
2022/08/11 13:32:17;;;;;;;5.93;2.55;;;;;;;27.71;26.42;101891.56;5079727;28;20048;-51
2022/08/11 13:34:45;;;;;;;4.70;2.60;;;;;;;27.76;26.88;101880.13;5082052;28;20379;-53
2022/08/11 13:37:14;;;;;;;9.02;2.60;;;;;;;27.82;26.41;101889.88;5092349;28;20479;-54
2022/08/11 13:39:46;;;;;;;4.72;2.53;;;;;;;27.83;25.56;101897.97;5091005;28;20044;-54
2022/08/11 13:42:16;;;;;;;5.30;2.90;;;;;;;27.88;25.43;101893.25;5093400;28;20040;-52
2022/08/11 13:44:44;;;;;;;8.35;3.00;;;;;;;27.88;25.69;101887.66;5092143;28;20036;-55
2022/08/11 13:47:13;;;;;;;5.18;2.67;;;;;;;27.84;26.25;101879.16;5074479;28;20044;-52
2022/08/11 13:49:41;;;;;;;6.68;2.90;;;;;;;27.83;26.37;101885.94;5075552;28;20147;-52
2022/08/11 13:52:12;;;;;;;5.72;2.92;;;;;;;27.80;26.78;101878.22;5093288;28;20042;-53
2022/08/11 13:54:41;;;;;;;8.10;3.10;;;;;;;27.80;26.81;101881.81;5074061;28;20044;-52
2022/08/11 13:57:11;;;;;;;3.95;2.70;;;;;;;27.74;26.71;101876.88;5092369;28;20052;-55
2022/08/11 14:00:08;;;;;;;5.40;2.60;;;;;;;27.78;26.54;101872.16;5063135;28;20032;-54
2022/08/11 14:02:51;;;;;;;8.60;2.67;;;;;;;27.79;26.46;101871.00;4371949;28;10001418;-54
2022/08/11 14:05:40;;;;;;;6.53;2.63;;;;;;;27.81;25.85;101874.25;5052282;28;20055;-54
2022/08/11 14:08:33;;;;;;;6.47;2.40;;;;;;;27.79;26.14;101866.22;5074633;28;20502;-53
2022/08/11 14:14:20;;;;;;;4.88;2.58;;;;;;;27.99;26.36;101864.34;5076659;28;20042;-54
2022/08/11 14:16:48;;;;;;;3.53;2.70;;;;;;;27.96;26.73;101864.25;5088964;28;20040;-52
2022/08/11 14:19:17;;;;;;;7.82;2.53;;;;;;;27.94;26.41;101861.00;5085907;28;20490;-53
2022/08/11 14:24:55;;;;;;;6.20;3.00;;;;;;;28.04;26.62;101854.84;5087295;28;20493;-57
2022/08/11 14:27:28;;;;;;;4.35;2.67;;;;;;;28.18;26.46;101845.97;5074907;28;20491;-53
2022/08/11 14:33:03;;;;;;;3.97;2.50;;;;;;;28.37;26.70;101848.81;5079773;28;20042;-53
2022/08/11 14:35:44;;;;;;;4.95;2.85;;;;;;;28.30;26.84;101843.06;5080158;28;20040;-49
2022/08/11 14:38:18;;;;;;;8.90;2.83;;;;;;;28.22;27.04;101846.88;5075988;28;20051;-52
2022/08/11 14:49:28;;;;;;;4.75;2.83;;;;;;;28.38;26.33;101844.03;5080735;28;20048;-53
2022/08/11 14:51:57;;;;;;;4.95;2.75;;;;;;;28.36;26.22;101841.59;5080136;28;20509;-55
2022/08/11 14:57:16;;;;;;;7.47;2.70;;;;;;;28.41;26.60;101826.50;5091049;28;20088;-55
2022/08/11 14:59:49;;;;;;;3.15;2.60;;;;;;;28.41;26.11;101832.91;5077526;28;20406;-54
2022/08/11 15:05:06;;;;;;;6.88;2.75;;;;;;;28.43;26.04;101829.72;5092524;28;20036;-56
2022/08/11 15:07:34;;;;;;;4.20;2.30;;;;;;;28.46;26.40;101826.22;5073983;28;20115;-52
2022/08/11 15:10:05;;;;;;;4.20;2.67;;;;;;;28.44;25.90;101820.16;5074488;28;20040;-52
2022/08/11 15:12:41;;;;;;;6.70;2.50;;;;;;;28.51;26.03;101820.34;5081920;28;20044;-52
2022/08/11 15:18:01;;;;;;;5.63;2.50;;;;;;;28.60;25.85;101818.13;5080428;28;20032;-53
2022/08/11 15:26:17;;;;;;;5.85;2.63;;;;;;;28.84;25.62;101800.19;5092216;28;20066;-55
2022/08/11 15:37:55;;;;;;;4.25;2.40;;;;;;;28.82;26.44;101796.94;5081781;28;20055;-53
2022/08/11 15:46:50;;;;;;;5.40;2.67;;;;;;;28.73;26.78;101790.75;5095875;28;20040;-54
2022/08/11 15:49:33;;;;;;;8.02;2.90;;;;;;;28.79;26.25;101785.63;5078324;28;20047;-54
2022/08/11 15:52:24;;;;;;;5.38;2.72;;;;;;;28.86;26.37;101786.63;5095196;28;20044;-52
2022/08/11 15:54:52;;;;;;;5.72;2.90;;;;;;;28.86;25.92;101786.63;5077769;28;20052;-52
2022/08/11 16:05:43;;;;;;;4.03;2.58;;;;;;;28.88;25.85;101789.84;5080440;28;20048;-53
2022/08/11 16:08:34;;;;;;;4.38;2.28;;;;;;;28.99;25.14;101783.66;5080500;28;20119;-52
2022/08/11 16:11:03;;;;;;;4.43;2.70;;;;;;;29.03;25.22;101776.09;5077450;28;20040;-50
2022/08/11 16:16:14;;;;;;;5.07;2.60;;;;;;;28.96;25.17;101761.94;5078842;28;20046;-49
2022/08/11 16:18:55;;;;;;;6.00;2.58;;;;;;;28.94;25.49;101756.69;5079401;28;20056;-54
2022/08/11 16:21:34;;;;;;;7.68;2.72;;;;;;;28.95;25.37;101763.13;5064855;28;20047;-51
2022/08/11 16:24:06;;;;;;;6.03;2.55;;;;;;;29.03;25.43;101762.06;5061564;28;20043;-54
2022/08/11 16:26:38;;;;;;;5.25;2.67;;;;;;;28.97;25.47;101763.56;5077989;28;20036;-51
2022/08/11 16:29:30;;;;;;;5.80;2.75;;;;;;;28.91;25.71;101762.22;5094701;28;20040;-54
2022/08/11 16:32:17;;;;;;;5.03;2.90;;;;;;;28.85;25.73;101756.13;5077415;28;20043;-58
2022/08/11 16:38:34;;;;;;;5.55;2.60;;;;;;;28.98;25.60;101760.38;5062673;28;20052;-51
2022/08/11 16:41:11;;;;;;;3.88;2.60;;;;;;;29.00;25.42;101762.81;5078186;28;20040;-57
2022/08/11 16:49:07;;;;;;;6.68;2.60;;;;;;;28.92;25.46;101758.25;5077132;28;20397;-57
2022/08/11 16:51:35;;;;;;;5.15;2.72;;;;;;;28.87;25.33;101748.97;5094467;28;20040;-52
2022/08/11 16:54:03;;;;;;;4.55;2.63;;;;;;;28.94;25.66;101747.47;5075723;28;20042;-56
2022/08/11 16:56:46;;;;;;;3.83;2.50;;;;;;;29.01;25.85;101750.41;5094455;28;20112;-52
2022/08/11 16:59:36;;;;;;;5.45;2.83;;;;;;;29.02;25.27;101754.84;5077074;28;20048;-55
2022/08/11 17:14:45;;;;;;;8.80;2.78;;;;;;;28.99;25.52;101741.56;5078991;28;20036;-52
2022/08/11 17:17:20;;;;;;;6.25;2.42;;;;;;;28.94;25.37;101747.47;5093886;28;20044;-53
2022/08/11 17:19:51;;;;;;;4.18;2.60;;;;;;;28.84;25.34;101749.72;5076085;28;20053;-52
2022/08/11 17:25:27;;;;;;;6.97;2.60;;;;;;;28.80;25.79;101748.00;5078848;28;20048;-51
2022/08/11 17:27:55;;;;;;;3.90;2.42;;;;;;;28.78;25.53;101739.16;5075739;28;20036;-53
2022/08/11 17:36:36;;;;;;;7.80;2.50;;;;;;;28.82;25.96;101745.66;5065043;28;20050;-54
2022/08/11 17:39:27;;;;;;;5.20;2.72;;;;;;;28.80;25.61;101740.41;5061817;28;20423;-53
2022/08/11 17:50:37;;;;;;;4.57;2.50;;;;;;;28.78;26.29;101745.56;5073365;28;20051;-54
2022/08/11 18:01:49;;;;;;;5.18;2.55;;;;;;;28.68;26.39;101743.38;5077612;28;20054;-54
2022/08/11 18:04:21;;;;;;;5.70;2.60;;;;;;;28.69;26.64;101747.78;5089865;28;20093;-54
2022/08/11 18:06:49;;;;;;;4.40;2.70;;;;;;;28.66;26.65;101740.94;5072446;28;20032;-53
